Time;durP1;ratioP1;P1;durP2;ratioP2;P2;SDS_P1;SDS_P2;PMS_P1;PMS_P2;Temp;Humidity;BMP_temperature;BMP_pressure;BME280_temperature;BME280_humidity;BME280_pressure;Samples;Min_cycle;Max_cycle;Signal;HPM_P1;HPM_P2
2024/03/10 00:00:14;;;;;;;0.97;0.90;;;8.80;99.90;;;;;;5060735;28;20454;-81
2024/03/10 00:02:43;;;;;;;4.90;1.20;;;8.70;99.90;;;;;;5060736;28;20466;-82
2024/03/10 00:05:12;;;;;;;1.77;0.97;;;8.70;99.90;;;;;;5060832;28;20481;-81
2024/03/10 00:07:39;;;;;;;1.00;0.90;;;8.60;99.90;;;;;;5060409;28;20974;-81
2024/03/10 00:10:07;;;;;;;2.57;1.03;;;8.70;99.90;;;;;;5060720;28;20446;-81
2024/03/10 00:12:33;;;;;;;1.27;1.17;;;8.70;99.90;;;;;;5061028;28;20818;-81
2024/03/10 00:15:01;;;;;;;1.37;0.90;;;8.70;99.90;;;;;;5060391;28;20449;-82
2024/03/10 00:17:28;;;;;;;1.53;0.90;;;8.60;99.90;;;;;;5060199;28;20465;-81
2024/03/10 00:19:55;;;;;;;0.93;0.70;;;8.70;99.90;;;;;;5059568;28;20434;-81
2024/03/10 00:22:21;;;;;;;0.80;0.70;;;8.70;99.90;;;;;;5059952;28;20448;-81
2024/03/10 00:24:49;;;;;;;1.43;0.70;;;8.70;99.90;;;;;;5059138;28;20939;-81
2024/03/10 00:27:16;;;;;;;1.00;0.70;;;8.70;99.90;;;;;;5059115;28;20465;-80
2024/03/10 00:29:43;;;;;;;3.13;0.90;;;8.70;99.90;;;;;;5059194;28;20454;-81
2024/03/10 00:32:11;;;;;;;1.27;0.97;;;8.70;99.90;;;;;;5059468;28;20882;-82
2024/03/10 00:34:39;;;;;;;1.93;0.60;;;8.70;99.90;;;;;;5059068;28;20434;-81
2024/03/10 00:37:06;;;;;;;1.27;1.03;;;8.80;99.90;;;;;;5059135;28;20469;-81
2024/03/10 00:39:33;;;;;;;0.80;0.57;;;8.80;99.90;;;;;;5058433;28;20453;-81
2024/03/10 00:42:00;;;;;;;1.00;0.80;;;8.80;99.90;;;;;;5058527;28;20450;-81
2024/03/10 00:44:27;;;;;;;1.13;0.90;;;8.90;99.90;;;;;;5058530;28;20453;-82
2024/03/10 00:46:54;;;;;;;0.60;0.60;;;8.80;99.90;;;;;;5058408;28;20493;-82
2024/03/10 00:49:22;;;;;;;1.80;0.97;;;8.90;99.90;;;;;;5058595;28;20445;-81
2024/03/10 00:51:49;;;;;;;0.90;0.60;;;8.90;99.90;;;;;;5058239;28;20792;-81
2024/03/10 00:54:16;;;;;;;1.10;0.70;;;8.90;99.90;;;;;;5058350;28;20449;-82
2024/03/10 00:56:42;;;;;;;2.60;0.67;;;8.90;99.90;;;;;;5057896;28;20441;-82
2024/03/10 00:59:09;;;;;;;1.17;0.93;;;8.80;99.90;;;;;;5062044;28;20438;-81
2024/03/10 01:01:36;;;;;;;0.70;0.70;;;8.90;99.90;;;;;;5065810;28;20485;-82
2024/03/10 01:04:03;;;;;;;0.70;0.50;;;8.90;99.90;;;;;;5064119;28;20473;-82
2024/03/10 01:06:31;;;;;;;0.83;0.70;;;8.80;99.90;;;;;;5063876;28;20482;-82
2024/03/10 01:08:59;;;;;;;1.17;1.00;;;8.80;99.90;;;;;;5062716;28;20453;-82
2024/03/10 01:11:26;;;;;;;0.50;0.50;;;8.80;99.90;;;;;;5062605;28;20489;-82
2024/03/10 01:13:53;;;;;;;0.93;0.57;;;8.80;99.90;;;;;;5062577;28;20438;-82
2024/03/10 01:16:20;;;;;;;2.63;0.80;;;8.70;99.90;;;;;;5061568;28;20418;-82
2024/03/10 01:18:47;;;;;;;1.17;0.90;;;8.70;99.90;;;;;;5061486;28;20835;-82
2024/03/10 01:21:14;;;;;;;1.60;0.60;;;8.70;99.90;;;;;;5061190;28;20642;-82
2024/03/10 01:23:42;;;;;;;1.53;1.03;;;8.70;99.90;;;;;;5061647;28;20815;-82
2024/03/10 01:26:08;;;;;;;1.13;0.90;;;8.80;99.90;;;;;;5061760;28;20474;-82
2024/03/10 01:28:35;;;;;;;1.17;0.60;;;8.80;99.90;;;;;;5061085;28;20466;-82
2024/03/10 01:31:02;;;;;;;1.27;0.60;;;8.80;99.90;;;;;;5061263;28;20438;-82
2024/03/10 01:33:28;;;;;;;1.30;0.70;;;8.80;99.90;;;;;;5061140;28;20939;-82
2024/03/10 01:35:55;;;;;;;0.80;0.80;;;8.70;99.90;;;;;;5059678;28;20442;-82
2024/03/10 01:38:22;;;;;;;1.53;0.83;;;8.70;99.90;;;;;;5059149;28;20473;-82
2024/03/10 01:40:50;;;;;;;1.00;1.00;;;8.70;99.90;;;;;;5059859;28;20453;-82
2024/03/10 01:43:16;;;;;;;5.50;1.07;;;8.70;99.90;;;;;;5059946;28;20942;-82
2024/03/10 01:45:43;;;;;;;2.30;0.90;;;8.70;99.90;;;;;;5059694;28;20488;-82
2024/03/10 01:48:10;;;;;;;2.77;1.27;;;8.70;99.90;;;;;;5059123;28;20974;-82
2024/03/10 01:50:37;;;;;;;6.63;1.07;;;8.70;99.90;;;;;;5060038;28;20525;-82
2024/03/10 01:53:04;;;;;;;1.23;1.10;;;8.80;99.90;;;;;;5059526;28;20452;-82
2024/03/10 01:55:31;;;;;;;1.07;0.80;;;8.70;99.90;;;;;;5059642;28;20474;-81
2024/03/10 01:58:00;;;;;;;2.10;1.50;;;8.70;99.90;;;;;;5059596;28;20469;-82
2024/03/10 02:00:26;;;;;;;4.83;1.60;;;8.70;99.90;;;;;;5058955;28;20442;-82
2024/03/10 02:02:54;;;;;;;2.53;1.17;;;8.70;99.90;;;;;;5058715;28;20513;-81
2024/03/10 02:05:22;;;;;;;2.83;1.43;;;8.70;99.90;;;;;;5058396;28;20456;-81
2024/03/10 02:07:49;;;;;;;0.60;0.60;;;8.60;99.90;;;;;;5058500;28;20505;-82
2024/03/10 02:10:16;;;;;;;1.37;0.87;;;8.60;99.90;;;;;;5058523;28;20950;-81
2024/03/10 02:12:43;;;;;;;0.80;0.80;;;8.70;99.90;;;;;;5058627;28;20458;-82
2024/03/10 02:15:12;;;;;;;2.93;1.50;;;8.70;99.90;;;;;;5057861;28;20480;-82
2024/03/10 02:17:40;;;;;;;1.53;1.10;;;8.70;99.90;;;;;;5057996;28;20824;-82
2024/03/10 02:20:19;;;;;;;1.00;0.90;;;8.70;99.90;;;;;;5057418;28;20454;-81
2024/03/10 02:22:46;;;;;;;2.60;1.57;;;8.70;99.90;;;;;;5057501;28;20437;-81
2024/03/10 02:25:13;;;;;;;2.40;0.80;;;8.70;99.90;;;;;;5057507;28;20441;-81
2024/03/10 02:27:44;;;;;;;1.23;1.07;;;8.70;99.90;;;;;;5057499;28;20999;-82
2024/03/10 02:30:29;;;;;;;1.13;0.93;;;8.70;99.90;;;;;;5058547;28;20473;-82
2024/03/10 02:49:23;;;;;;;2.80;1.20;;;8.50;99.90;;;;;;5078711;28;20409;-80
2024/03/10 02:51:50;;;;;;;0.80;0.77;;;8.40;99.90;;;;;;5066231;28;20456;-81
2024/03/10 02:54:18;;;;;;;1.07;0.73;;;8.30;99.90;;;;;;5062232;28;20442;-81
2024/03/10 02:56:45;;;;;;;1.33;0.80;;;8.80;99.90;;;;;;5060724;28;20965;-81
2024/03/10 02:59:13;;;;;;;0.67;0.67;;;8.20;99.90;;;;;;5062355;28;20446;-81
2024/03/10 03:01:40;;;;;;;1.53;0.70;;;8.10;99.90;;;;;;5059350;28;20481;-80
2024/03/10 03:04:07;;;;;;;2.27;0.90;;;8.00;99.90;;;;;;5058656;28;20464;-82
2024/03/10 03:06:34;;;;;;;0.80;0.67;;;8.00;99.90;;;;;;5058282;28;20489;-81
2024/03/10 03:09:03;;;;;;;0.87;0.70;;;7.90;99.90;;;;;;5056795;28;20501;-81
2024/03/10 03:11:31;;;;;;;1.03;0.70;;;7.90;99.90;;;;;;5056324;28;20450;-80
2024/03/10 03:13:58;;;;;;;0.87;0.87;;;7.90;99.90;;;;;;5055122;28;20939;-80
2024/03/10 03:16:26;;;;;;;0.70;0.67;;;7.80;99.90;;;;;;5056335;28;20462;-81
2024/03/10 03:18:52;;;;;;;0.80;0.70;;;7.80;99.90;;;;;;5055862;28;20995;-80
2024/03/10 03:21:19;;;;;;;0.90;0.73;;;7.80;99.90;;;;;;5056005;28;20442;-80
2024/03/10 03:23:46;;;;;;;1.30;0.87;;;7.80;99.90;;;;;;5055800;28;20434;-81
2024/03/10 03:26:14;;;;;;;3.20;1.03;;;7.80;99.90;;;;;;5054912;28;20485;-81
2024/03/10 03:28:41;;;;;;;0.60;0.60;;;7.80;99.90;;;;;;5055721;28;20560;-81
2024/03/10 03:31:08;;;;;;;2.10;1.00;;;7.70;99.90;;;;;;5055022;28;20950;-81
2024/03/10 03:33:36;;;;;;;2.40;0.93;;;7.70;99.90;;;;;;5055104;28;20541;-81
2024/03/10 03:36:04;;;;;;;1.17;0.70;;;7.70;99.90;;;;;;5055580;28;20440;-81
2024/03/10 03:38:30;;;;;;;0.80;0.80;;;7.70;99.90;;;;;;5055200;28;20561;-81
2024/03/10 03:40:57;;;;;;;2.30;0.97;;;7.70;99.90;;;;;;5055299;28;20450;-81
2024/03/10 03:43:24;;;;;;;2.20;1.10;;;7.70;99.90;;;;;;5055391;28;20947;-81
2024/03/10 03:45:50;;;;;;;2.87;0.97;;;7.70;99.90;;;;;;5055722;28;20441;-80
2024/03/10 03:48:18;;;;;;;1.70;0.80;;;7.70;99.90;;;;;;5055608;28;20465;-81
2024/03/10 03:50:46;;;;;;;1.10;0.77;;;7.80;99.90;;;;;;5055231;28;20450;-80
2024/03/10 03:53:13;;;;;;;0.53;0.50;;;7.80;99.90;;;;;;5055847;28;20450;-81
2024/03/10 03:55:39;;;;;;;1.23;0.70;;;7.80;99.90;;;;;;5055802;28;20965;-81
2024/03/10 03:58:06;;;;;;;1.20;0.80;;;7.80;99.90;;;;;;5054766;28;20469;-80
2024/03/10 04:00:33;;;;;;;0.50;0.50;;;7.80;99.90;;;;;;5057714;28;20452;-81
2024/03/10 04:02:59;;;;;;;0.63;0.63;;;7.80;99.90;;;;;;5058768;28;20481;-80
2024/03/10 04:05:26;;;;;;;0.90;0.90;;;7.80;99.90;;;;;;5058972;28;20429;-81
2024/03/10 04:07:54;;;;;;;1.53;0.90;;;7.90;99.90;;;;;;5059423;28;20489;-81
2024/03/10 04:10:21;;;;;;;1.70;1.37;;;7.80;99.90;;;;;;5058736;28;20461;-81
2024/03/10 04:12:49;;;;;;;3.23;0.70;;;7.90;99.90;;;;;;5057827;28;20456;-80
2024/03/10 04:15:16;;;;;;;1.23;0.67;;;7.90;99.90;;;;;;5058853;28;20454;-81
2024/03/10 04:17:46;;;;;;;1.53;0.80;;;7.80;99.90;;;;;;5058395;28;20497;-81
2024/03/10 04:20:13;;;;;;;0.80;0.80;;;7.80;99.90;;;;;;5058533;28;20464;-80
2024/03/10 04:22:40;;;;;;;1.53;0.97;;;7.70;99.90;;;;;;5058685;28;20446;-80
2024/03/10 04:25:08;;;;;;;0.50;0.50;;;7.70;99.90;;;;;;5058117;28;20923;-80
2024/03/10 04:27:35;;;;;;;3.83;0.80;;;7.80;99.90;;;;;;5057446;28;20859;-81
2024/03/10 04:30:02;;;;;;;0.70;0.70;;;7.80;99.90;;;;;;5057717;28;20485;-79
2024/03/10 04:32:30;;;;;;;1.30;0.60;;;7.80;99.90;;;;;;5057400;28;20528;-81
2024/03/10 04:34:57;;;;;;;1.33;0.80;;;7.80;99.90;;;;;;5058150;28;20457;-80
2024/03/10 04:37:27;;;;;;;1.17;1.00;;;7.70;99.90;;;;;;5057880;28;20489;-80
2024/03/10 04:39:53;;;;;;;2.00;0.80;;;7.70;99.90;;;;;;5057473;28;20524;-80
2024/03/10 04:42:21;;;;;;;1.13;0.63;;;7.70;99.90;;;;;;5056873;28;20935;-80
2024/03/10 04:44:48;;;;;;;0.90;0.57;;;7.70;99.90;;;;;;5056747;28;20453;-80
2024/03/10 04:47:15;;;;;;;2.50;0.93;;;7.70;99.90;;;;;;5056422;28;20519;-80
2024/03/10 04:49:43;;;;;;;8.10;1.30;;;7.70;99.90;;;;;;5057014;28;20453;-80
2024/03/10 04:52:09;;;;;;;0.60;0.50;;;7.70;99.90;;;;;;5056766;28;20449;-80
2024/03/10 04:54:36;;;;;;;1.00;1.00;;;7.70;99.90;;;;;;5060975;28;20453;-81
2024/03/10 04:57:04;;;;;;;1.00;0.50;;;7.60;99.90;;;;;;5061055;28;20465;-81
2024/03/10 04:59:32;;;;;;;1.50;1.03;;;7.60;99.90;;;;;;5060833;28;20452;-82
2024/03/10 05:01:58;;;;;;;1.20;1.10;;;7.70;99.90;;;;;;5060092;28;20478;-81
2024/03/10 05:04:25;;;;;;;0.90;0.60;;;7.70;99.90;;;;;;5060244;28;20442;-81
2024/03/10 05:06:52;;;;;;;0.50;0.43;;;7.70;99.90;;;;;;5059601;28;20488;-81
2024/03/10 05:09:18;;;;;;;0.90;0.90;;;7.70;99.90;;;;;;5059692;28;20445;-81
2024/03/10 05:11:45;;;;;;;1.30;0.77;;;7.70;99.90;;;;;;5058466;28;20457;-81
2024/03/10 05:14:12;;;;;;;1.10;0.70;;;7.70;99.90;;;;;;5058567;28;20911;-81
2024/03/10 05:16:41;;;;;;;0.60;0.50;;;7.70;99.90;;;;;;5058417;28;20450;-80
2024/03/10 05:19:08;;;;;;;3.13;0.80;;;7.70;99.90;;;;;;5059125;28;21021;-81
2024/03/10 05:21:35;;;;;;;1.70;0.80;;;7.70;99.90;;;;;;5058167;28;20446;-79
2024/03/10 05:24:02;;;;;;;1.47;1.00;;;7.60;99.90;;;;;;5057449;28;20438;-81
2024/03/10 05:26:28;;;;;;;0.60;0.60;;;7.60;99.90;;;;;;5056579;28;20454;-81
2024/03/10 05:28:55;;;;;;;0.77;0.70;;;7.60;99.90;;;;;;5056719;28;20515;-81
2024/03/10 05:31:29;;;;;;;1.00;0.60;;;7.60;99.90;;;;;;5056751;28;20453;-80
2024/03/10 05:33:59;;;;;;;3.50;1.13;;;7.60;99.90;;;;;;5055950;28;20449;-80
2024/03/10 05:36:26;;;;;;;0.60;0.50;;;7.60;99.90;;;;;;5056072;28;20449;-80
2024/03/10 05:38:53;;;;;;;1.03;0.70;;;7.50;99.90;;;;;;5055212;28;20462;-80
2024/03/10 05:41:19;;;;;;;0.60;0.60;;;7.40;99.90;;;;;;5055550;28;20457;-80
2024/03/10 05:43:46;;;;;;;0.60;0.60;;;7.40;99.90;;;;;;5055113;28;20442;-80
2024/03/10 05:46:13;;;;;;;1.03;0.73;;;7.40;99.90;;;;;;5055028;28;20445;-80
2024/03/10 05:48:41;;;;;;;0.53;0.40;;;7.40;99.90;;;;;;5054831;28;20482;-80
2024/03/10 05:51:10;;;;;;;1.87;1.00;;;7.30;99.90;;;;;;5054942;28;20477;-80
2024/03/10 05:53:38;;;;;;;0.60;0.60;;;7.30;99.90;;;;;;5056039;28;20450;-80
2024/03/10 05:56:07;;;;;;;0.53;0.53;;;7.20;99.90;;;;;;5056114;28;20843;-80
2024/03/10 05:58:34;;;;;;;0.40;0.40;;;7.20;99.90;;;;;;5055979;28;20557;-80
2024/03/10 06:01:01;;;;;;;5.30;0.60;;;7.10;99.90;;;;;;5054740;28;20501;-80
2024/03/10 06:03:28;;;;;;;1.17;0.90;;;7.10;99.90;;;;;;5054775;28;20438;-80
2024/03/10 06:05:55;;;;;;;1.03;0.60;;;7.00;99.90;;;;;;5054441;28;20446;-80
2024/03/10 06:08:23;;;;;;;0.80;0.60;;;7.10;99.90;;;;;;5054224;28;20994;-80
2024/03/10 06:10:51;;;;;;;0.60;0.60;;;7.10;99.90;;;;;;5054497;28;20445;-80
2024/03/10 06:13:18;;;;;;;1.10;1.10;;;7.10;99.90;;;;;;5054628;28;20446;-80
2024/03/10 06:15:44;;;;;;;2.20;1.03;;;7.10;99.90;;;;;;5054469;28;20434;-80
2024/03/10 06:18:21;;;;;;;0.70;0.70;;;7.10;99.90;;;;;;5054365;28;20466;-80
2024/03/10 06:26:14;;;;;;;1.23;0.60;;;7.10;99.90;;;;;;5052996;28;20441;-80
2024/03/10 06:28:42;;;;;;;0.93;0.80;;;7.10;99.90;;;;;;5054156;28;20509;-80
2024/03/10 06:31:08;;;;;;;0.80;0.80;;;7.10;99.90;;;;;;5058481;28;20453;-80
2024/03/10 06:33:35;;;;;;;1.07;0.80;;;7.20;99.90;;;;;;5054658;28;20442;-80
2024/03/10 06:36:08;;;;;;;0.50;0.50;;;7.20;99.90;;;;;;5054160;28;20485;-80
2024/03/10 06:38:38;;;;;;;0.80;0.50;;;7.20;99.90;;;;;;5053946;28;20497;-80
2024/03/10 06:41:05;;;;;;;1.13;0.60;;;7.20;99.90;;;;;;5054386;28;20802;-80
2024/03/10 06:43:32;;;;;;;1.17;0.90;;;7.20;99.90;;;;;;5054054;28;20449;-80
2024/03/10 06:45:59;;;;;;;1.20;0.90;;;7.30;99.90;;;;;;5054192;28;20446;-80
2024/03/10 06:48:26;;;;;;;2.10;0.53;;;7.30;99.90;;;;;;5053449;28;20482;-80
2024/03/10 06:50:54;;;;;;;0.70;0.50;;;7.30;99.90;;;;;;5053919;28;20448;-80
2024/03/10 06:53:21;;;;;;;1.27;0.50;;;7.30;99.90;;;;;;5057901;28;20943;-81
2024/03/10 06:55:49;;;;;;;0.73;0.73;;;7.50;99.90;;;;;;5055984;28;20450;-81
2024/03/10 06:58:16;;;;;;;0.50;0.50;;;7.50;99.90;;;;;;5055367;28;20830;-81
2024/03/10 07:00:44;;;;;;;2.60;0.60;;;7.50;99.90;;;;;;5055913;28;20521;-81
2024/03/10 07:03:11;;;;;;;1.17;0.60;;;7.50;99.90;;;;;;5056056;28;20449;-81
2024/03/10 07:05:39;;;;;;;1.03;0.77;;;7.50;99.90;;;;;;5055794;28;20504;-81
2024/03/10 07:08:07;;;;;;;0.60;0.60;;;7.60;99.90;;;;;;5054622;28;20972;-81
2024/03/10 07:10:35;;;;;;;1.10;0.77;;;7.60;99.90;;;;;;5055754;28;20545;-81
2024/03/10 07:13:04;;;;;;;0.70;0.60;;;7.60;99.90;;;;;;5054526;28;20504;-80
2024/03/10 07:15:31;;;;;;;0.90;0.70;;;7.60;99.90;;;;;;5054438;28;20441;-80
2024/03/10 07:17:58;;;;;;;2.00;1.30;;;7.70;99.90;;;;;;5054873;28;20470;-80
2024/03/10 07:20:25;;;;;;;2.97;0.80;;;7.70;99.90;;;;;;5054778;28;20862;-80
2024/03/10 07:22:53;;;;;;;3.70;1.00;;;7.70;99.90;;;;;;5054352;28;20863;-80
2024/03/10 07:25:22;;;;;;;1.23;0.87;;;7.70;99.90;;;;;;5054763;28;20442;-80
2024/03/10 07:27:49;;;;;;;1.43;1.17;;;7.80;99.90;;;;;;5054656;28;20481;-80
2024/03/10 07:30:17;;;;;;;2.80;1.00;;;7.80;99.90;;;;;;5055090;28;20480;-80
2024/03/10 07:32:45;;;;;;;2.43;1.07;;;7.80;99.90;;;;;;5055282;28;20442;-81
2024/03/10 07:35:13;;;;;;;1.03;0.73;;;7.90;99.90;;;;;;5056058;28;20442;-80
2024/03/10 07:37:40;;;;;;;0.93;0.80;;;8.00;99.90;;;;;;5060080;28;20461;-81
2024/03/10 07:40:15;;;;;;;1.10;1.00;;;8.10;99.90;;;;;;5060482;28;20453;-81
2024/03/10 07:42:41;;;;;;;1.13;0.67;;;8.20;99.90;;;;;;5061971;28;20492;-82
2024/03/10 07:45:09;;;;;;;0.80;0.80;;;8.30;99.90;;;;;;5061883;28;20453;-82
2024/03/10 07:47:37;;;;;;;1.10;1.00;;;8.50;99.90;;;;;;5062017;28;20998;-82
2024/03/10 07:50:06;;;;;;;0.60;0.60;;;8.70;99.90;;;;;;5061451;28;20430;-82
2024/03/10 07:52:33;;;;;;;0.53;0.50;;;8.90;99.90;;;;;;5061698;28;20450;-82
2024/03/10 07:55:00;;;;;;;1.30;0.60;;;9.20;99.90;;;;;;5061665;28;20437;-82
2024/03/10 07:57:26;;;;;;;1.03;0.60;;;9.50;99.90;;;;;;5062652;28;20525;-82
2024/03/10 07:59:54;;;;;;;0.60;0.60;;;9.60;99.90;;;;;;5060339;28;20425;-82
2024/03/10 08:02:20;;;;;;;0.80;0.50;;;9.90;99.90;;;;;;5059682;28;20845;-82
2024/03/10 08:04:48;;;;;;;0.67;0.50;;;10.20;99.90;;;;;;5059443;28;20445;-82
2024/03/10 08:07:15;;;;;;;1.63;0.73;;;10.30;99.90;;;;;;5059593;28;20458;-82
2024/03/10 08:09:42;;;;;;;1.17;1.03;;;10.40;99.90;;;;;;5058935;28;20441;-82
2024/03/10 08:12:11;;;;;;;2.10;0.83;;;10.50;99.90;;;;;;5059146;28;20785;-82
2024/03/10 08:14:38;;;;;;;0.93;0.90;;;10.60;99.90;;;;;;5059264;28;20453;-82
2024/03/10 08:17:05;;;;;;;0.80;0.70;;;10.60;99.90;;;;;;5060588;28;20473;-82
2024/03/10 08:19:32;;;;;;;0.80;0.80;;;10.70;99.90;;;;;;5060024;28;20421;-82
2024/03/10 08:22:00;;;;;;;1.43;0.90;;;10.80;99.90;;;;;;5059500;28;20448;-82
2024/03/10 08:24:26;;;;;;;2.73;1.90;;;10.80;99.90;;;;;;5059074;28;20438;-82
2024/03/10 08:26:54;;;;;;;0.77;0.77;;;10.80;99.90;;;;;;5059876;28;20437;-82
2024/03/10 08:29:21;;;;;;;1.20;1.10;;;10.80;99.90;;;;;;5059380;28;20489;-82
2024/03/10 08:31:48;;;;;;;2.27;1.10;;;10.80;99.90;;;;;;5060272;28;20438;-82
2024/03/10 08:34:16;;;;;;;1.83;1.40;;;10.80;99.90;;;;;;5059326;28;20442;-82
2024/03/10 08:36:42;;;;;;;2.00;1.27;;;10.70;99.90;;;;;;5059081;28;20450;-82
2024/03/10 08:39:11;;;;;;;0.90;0.90;;;10.60;99.90;;;;;;5058581;28;20535;-82
2024/03/10 08:41:37;;;;;;;2.00;1.03;;;10.60;99.90;;;;;;5058033;28;20456;-82
2024/03/10 08:44:05;;;;;;;2.43;1.10;;;10.50;99.90;;;;;;5058921;28;20445;-82
2024/03/10 08:46:32;;;;;;;2.97;1.27;;;10.60;99.90;;;;;;5061669;28;20457;-82
2024/03/10 08:48:59;;;;;;;2.33;1.17;;;10.60;99.90;;;;;;5060502;28;20481;-82
2024/03/10 08:51:27;;;;;;;1.77;1.40;;;10.60;99.90;;;;;;5060608;28;20815;-82
2024/03/10 08:53:54;;;;;;;1.30;1.20;;;10.70;99.90;;;;;;5060988;28;20442;-82
2024/03/10 08:56:23;;;;;;;1.00;1.00;;;10.90;99.90;;;;;;5065690;28;20449;-82
2024/03/10 08:58:49;;;;;;;3.37;0.87;;;10.80;99.90;;;;;;5064458;28;20457;-83
2024/03/10 09:01:16;;;;;;;1.57;1.47;;;10.70;99.90;;;;;;5062988;28;20485;-82
2024/03/10 09:03:43;;;;;;;1.60;1.50;;;10.70;99.90;;;;;;5063086;28;20456;-82
2024/03/10 09:06:10;;;;;;;1.87;1.17;;;10.80;99.90;;;;;;5062716;28;20458;-83
2024/03/10 09:08:36;;;;;;;1.53;1.43;;;10.90;99.90;;;;;;5062091;28;20494;-82
2024/03/10 09:11:06;;;;;;;1.60;1.37;;;11.20;99.90;;;;;;5063199;28;20450;-83
2024/03/10 09:13:35;;;;;;;1.23;1.10;;;11.70;99.90;;;;;;5060954;28;20532;-83
2024/03/10 09:16:02;;;;;;;2.37;1.53;;;12.60;99.90;;;;;;5060838;28;20926;-82
2024/03/10 09:18:29;;;;;;;2.37;1.60;;;13.40;99.90;;;;;;5060511;28;20462;-82
2024/03/10 09:20:57;;;;;;;2.23;1.43;;;14.40;99.90;;;;;;5059769;28;20453;-82
2024/03/10 09:23:25;;;;;;;2.90;1.43;;;14.90;99.90;;;;;;5059734;28;20821;-82
2024/03/10 09:25:54;;;;;;;1.73;1.17;;;15.00;99.90;;;;;;5060388;28;20828;-82
2024/03/10 09:28:22;;;;;;;3.07;1.30;;;15.10;99.40;;;;;;5061526;28;20481;-82
2024/03/10 09:30:50;;;;;;;1.33;1.10;;;15.10;99.10;;;;;;5061141;28;20456;-82
2024/03/10 09:33:17;;;;;;;1.63;1.30;;;14.90;99.80;;;;;;5060565;28;20934;-82
2024/03/10 09:35:43;;;;;;;2.17;1.43;;;14.50;99.90;;;;;;5060902;28;20528;-79
2024/03/10 09:38:12;;;;;;;1.10;0.90;;;14.10;99.90;;;;;;5062974;28;20473;-79
2024/03/10 09:40:39;;;;;;;1.67;1.20;;;13.90;99.90;;;;;;5061902;28;20449;-81
2024/03/10 09:43:11;;;;;;;1.20;1.10;;;13.50;99.90;;;;;;5062685;28;20465;-79
2024/03/10 09:45:41;;;;;;;1.00;0.87;;;13.30;99.90;;;;;;5060886;28;20439;-79
2024/03/10 09:48:10;;;;;;;2.67;1.57;;;13.10;99.90;;;;;;5060842;28;20966;-79
2024/03/10 09:50:40;;;;;;;2.10;1.30;;;13.10;99.90;;;;;;5060150;28;20445;-79
2024/03/10 09:53:09;;;;;;;0.63;0.60;;;13.10;99.90;;;;;;5059905;28;20442;-79
2024/03/10 09:55:35;;;;;;;2.93;1.00;;;13.40;99.90;;;;;;5059979;28;20430;-80
2024/03/10 09:58:10;;;;;;;2.50;0.70;;;13.20;99.90;;;;;;5058413;28;20545;-80
2024/03/10 10:00:39;;;;;;;1.97;0.70;;;13.20;99.90;;;;;;5059585;28;20460;-80
2024/03/10 10:03:12;;;;;;;4.70;1.27;;;13.20;99.90;;;;;;5059723;28;20446;-80
2024/03/10 10:05:44;;;;;;;2.80;1.40;;;13.00;99.90;;;;;;5056556;28;20481;-80
2024/03/10 10:08:12;;;;;;;1.77;0.80;;;12.90;99.90;;;;;;5056360;28;20501;-80
2024/03/10 10:10:41;;;;;;;0.80;0.70;;;12.90;99.90;;;;;;5056343;28;20490;-80
2024/03/10 10:13:08;;;;;;;1.23;0.80;;;12.90;99.90;;;;;;5056390;28;20464;-80
2024/03/10 10:15:35;;;;;;;1.43;1.00;;;13.00;99.90;;;;;;5055749;28;20958;-80
2024/03/10 10:18:03;;;;;;;0.90;0.90;;;12.90;99.90;;;;;;5055747;28;20464;-80
2024/03/10 10:20:32;;;;;;;1.27;1.17;;;13.10;99.90;;;;;;5056569;28;20446;-80
2024/03/10 10:23:00;;;;;;;1.47;0.80;;;13.20;99.90;;;;;;5055971;28;20542;-80
2024/03/10 10:25:28;;;;;;;1.33;0.80;;;13.20;99.90;;;;;;5056015;28;20477;-80
2024/03/10 10:27:56;;;;;;;2.20;1.47;;;13.20;99.90;;;;;;5055839;28;20528;-80
2024/03/10 10:30:27;;;;;;;1.43;1.00;;;13.20;99.90;;;;;;5056215;28;20426;-80
2024/03/10 10:33:04;;;;;;;0.97;0.90;;;13.20;99.90;;;;;;5058931;28;20509;-80
2024/03/10 10:35:34;;;;;;;2.40;1.00;;;13.30;99.90;;;;;;5058787;28;20430;-81
2024/03/10 10:38:04;;;;;;;1.67;1.10;;;13.30;99.90;;;;;;5057180;28;20458;-80
2024/03/10 10:40:30;;;;;;;1.50;0.93;;;13.20;99.90;;;;;;5057824;28;20453;-80
2024/03/10 10:42:58;;;;;;;1.47;1.07;;;13.20;99.90;;;;;;5057425;28;20445;-81
2024/03/10 10:45:25;;;;;;;1.00;1.00;;;13.00;99.90;;;;;;5056856;28;20457;-80
2024/03/10 10:47:54;;;;;;;1.37;1.00;;;13.10;99.90;;;;;;5057008;28;20462;-81
2024/03/10 10:50:31;;;;;;;2.03;1.43;;;13.00;99.90;;;;;;5057696;28;20462;-80
2024/03/10 10:52:59;;;;;;;4.97;1.10;;;13.10;99.90;;;;;;5061803;28;20438;-81
2024/03/10 10:55:27;;;;;;;1.50;0.90;;;13.20;99.90;;;;;;5060911;28;20442;-81
2024/03/10 10:57:57;;;;;;;1.23;1.13;;;13.20;99.90;;;;;;5060204;28;20466;-80
2024/03/10 11:00:28;;;;;;;1.10;1.10;;;13.40;99.90;;;;;;5061015;28;20796;-80
2024/03/10 11:03:16;;;;;;;1.27;0.70;;;13.50;99.90;;;;;;5060137;28;20478;-80
2024/03/10 11:05:45;;;;;;;0.70;0.50;;;13.50;97.60;;;;;;5060275;28;20434;-81
2024/03/10 11:08:15;;;;;;;0.60;0.50;;;13.70;96.60;;;;;;5059701;28;20519;-81
2024/03/10 11:10:46;;;;;;;0.80;0.67;;;14.10;96.40;;;;;;5058593;28;20446;-80
2024/03/10 11:13:14;;;;;;;0.80;0.50;;;13.80;96.70;;;;;;5058803;28;20468;-80
2024/03/10 11:15:42;;;;;;;0.80;0.50;;;13.90;96.50;;;;;;5059148;28;20500;-80
2024/03/10 11:18:26;;;;;;;0.70;0.70;;;14.00;96.30;;;;;;5058270;28;20500;-80
2024/03/10 11:20:55;;;;;;;1.10;0.60;;;14.00;97.00;;;;;;5058341;28;20946;-80
2024/03/10 11:23:37;;;;;;;1.90;0.67;;;14.20;96.70;;;;;;5058309;28;20481;-80
2024/03/10 11:26:06;;;;;;;1.07;0.57;;;14.20;96.20;;;;;;5058059;28;20438;-80
2024/03/10 11:28:49;;;;;;;2.53;0.80;;;14.20;96.00;;;;;;5058927;28;20502;-80
2024/03/10 11:31:19;;;;;;;0.60;0.60;;;14.20;95.50;;;;;;5058955;28;20441;-80
2024/03/10 11:33:46;;;;;;;0.60;0.50;;;14.20;95.90;;;;;;5058610;28;20480;-80
2024/03/10 11:36:13;;;;;;;1.00;1.00;;;14.10;96.10;;;;;;5058752;28;20452;-80
2024/03/10 11:38:42;;;;;;;0.90;0.80;;;14.10;96.50;;;;;;5058999;28;20462;-80
2024/03/10 11:41:10;;;;;;;1.00;1.00;;;14.10;97.80;;;;;;5058014;28;20450;-80
2024/03/10 11:43:38;;;;;;;0.87;0.87;;;14.00;98.30;;;;;;5057022;28;20549;-80
2024/03/10 11:46:19;;;;;;;0.80;0.80;;;14.00;97.90;;;;;;5057589;28;20930;-80
2024/03/10 11:48:46;;;;;;;1.10;0.77;;;14.00;98.40;;;;;;5057809;28;20481;-79
2024/03/10 11:51:13;;;;;;;2.40;1.00;;;13.90;99.30;;;;;;5056676;28;20509;-80
2024/03/10 11:53:42;;;;;;;6.83;1.77;;;13.90;99.90;;;;;;5054983;28;20502;-80
2024/03/10 11:56:08;;;;;;;2.10;1.80;;;14.00;99.90;;;;;;5055343;28;20441;-80
2024/03/10 11:58:35;;;;;;;1.40;1.30;;;14.00;99.90;;;;;;5055923;28;20908;-80
2024/03/10 12:01:05;;;;;;;1.50;1.10;;;14.30;99.90;;;;;;5055257;28;20843;-80
2024/03/10 12:03:35;;;;;;;1.30;1.20;;;14.30;99.90;;;;;;5054582;28;20426;-80
2024/03/10 12:06:05;;;;;;;1.80;1.43;;;14.50;99.90;;;;;;5054921;28;20442;-80
2024/03/10 12:08:32;;;;;;;2.80;2.20;;;14.50;99.90;;;;;;5055866;28;20473;-80
2024/03/10 12:11:01;;;;;;;1.33;1.10;;;14.50;99.90;;;;;;5055533;28;20473;-80
2024/03/10 12:13:28;;;;;;;2.47;1.17;;;14.50;99.90;;;;;;5054809;28;20446;-80
2024/03/10 12:15:58;;;;;;;1.33;0.93;;;14.40;99.90;;;;;;5054390;28;20577;-80
2024/03/10 12:18:24;;;;;;;2.20;1.40;;;14.40;99.90;;;;;;5054738;28;20910;-80
2024/03/10 12:20:53;;;;;;;1.73;1.30;;;14.20;99.90;;;;;;5056171;28;20453;-80
2024/03/10 12:23:23;;;;;;;1.50;1.40;;;14.10;99.90;;;;;;5058157;28;20437;-80
2024/03/10 12:25:51;;;;;;;1.67;1.57;;;13.90;99.90;;;;;;5057947;28;20438;-80
2024/03/10 12:28:20;;;;;;;1.80;1.47;;;13.70;99.90;;;;;;5058678;28;20472;-80
2024/03/10 12:30:47;;;;;;;1.60;1.47;;;13.60;99.90;;;;;;5058930;28;20550;-80
2024/03/10 12:33:14;;;;;;;1.17;1.00;;;13.50;99.90;;;;;;5057339;28;20829;-80
2024/03/10 12:35:41;;;;;;;2.20;1.30;;;13.40;99.90;;;;;;5057362;28;20449;-80
2024/03/10 12:38:08;;;;;;;1.40;1.20;;;13.30;99.90;;;;;;5057275;28;20474;-80
2024/03/10 12:40:35;;;;;;;2.17;1.30;;;13.20;99.90;;;;;;5056945;28;20803;-82
2024/03/10 12:43:02;;;;;;;1.37;1.27;;;13.10;99.90;;;;;;5061613;28;20446;-83
2024/03/10 12:45:31;;;;;;;1.07;1.07;;;13.00;99.90;;;;;;5059279;28;20450;-83
2024/03/10 12:47:58;;;;;;;2.73;1.33;;;13.00;99.90;;;;;;5059111;28;20466;-82
2024/03/10 12:50:25;;;;;;;1.80;1.20;;;12.90;99.90;;;;;;5058836;28;20470;-83
2024/03/10 12:52:52;;;;;;;2.40;1.20;;;13.00;99.90;;;;;;5060000;28;20525;-82
2024/03/10 12:55:20;;;;;;;1.20;1.10;;;13.00;99.90;;;;;;5059422;28;20450;-82
2024/03/10 12:57:47;;;;;;;1.00;1.00;;;13.00;99.90;;;;;;5059685;28;20469;-82
2024/03/10 13:00:22;;;;;;;1.53;1.00;;;13.10;99.90;;;;;;5059127;28;20957;-83
2024/03/10 13:02:51;;;;;;;1.50;1.40;;;13.20;99.90;;;;;;5058085;28;20481;-82
2024/03/10 13:05:18;;;;;;;3.37;1.60;;;13.10;99.90;;;;;;5057592;28;20496;-81
2024/03/10 13:07:45;;;;;;;2.10;1.23;;;13.10;99.90;;;;;;5058670;28;20469;-80
2024/03/10 13:10:12;;;;;;;2.03;1.30;;;13.00;99.90;;;;;;5058716;28;20994;-80
2024/03/10 13:12:41;;;;;;;1.43;1.10;;;13.00;99.90;;;;;;5059717;28;20446;-80
2024/03/10 13:15:10;;;;;;;3.63;1.30;;;12.90;99.90;;;;;;5061901;28;20436;-80
2024/03/10 13:17:38;;;;;;;2.33;1.30;;;12.80;99.90;;;;;;5061354;28;20512;-80